Tom Price, Western Australia

10:31 PM AWST on October 23, 2014 (GMT +0800)
Tom Price Weather Centre | Change Station
CLOSE
Current Station
Personal Weather Station
Location: Tom Price, WA
Elevation: 2378 ft
Nearby Weather Stations

Elev 2378 ft 22.69 °S, 117.79 °E | Updated 7 seconds ago

Clear
Clear
80.0 °F
Feels Like 79 °F
N
1.2
Wind Variable Wind from South
Gusts 1.2 mph

Today
High -- | Low -- °F
--% Chance of Precip.
Yesterday
High -- | Low -- °F
Precip. -- in
5:30 AM 6:16 PM
Waning Crescent, 0% visible
Pressure 29.98 in
Visibility 6.2 miles
Clouds
Heat Index 79 °F
Dew Point 36 °F
Humidity 21%
Rainfall 0.00 in
Snow Depth Not available.
UV 0.0 out of 12
Pollen Not available.
Air Quality Not available.
Flu Activity Not available.
METAR YPBO 231400Z AUTO 23006KT 9999 // NCD 30/03 Q1015

More Conditions Fewer Conditions

Pressure 29.98 in
Visibility 6.2 miles
Clouds
Heat Index 79 °F
Dew Point 36 °F
Humidity 21%
Rainfall 0.00 in
Snow Depth Not available.
UV 0.0 out of 12
Pollen Not available.
Air Quality Not available.
Flu Activity Not available.
METAR YPBO 231400Z AUTO 23006KT 9999 // NCD 30/03 Q1015

More Conditions Fewer Conditions

10-Day Weather Forecast

Almanac

Astronomy

Oct. 23, 2014 Rise Set
Actual Time 5:30 AM AWST 6:16 PM AWST
Civil Twilight 5:07 AM AWST 6:39 PM AWST
Nautical Twilight 4:40 AM AWST 7:06 PM AWST
Astronomical Twilight 4:12 AM AWST 7:34 PM AWST
Moon 4:56 AM AWST 5:46 PM AWST
Length of Visible Light 13h 31m
Length of Day
12h 45m
Tomorrow will be 1m 15s longer.
Waning Crescent, 0% of the Moon is Illuminated
Today
Waning Crescent
Oct 23
New
Oct 30
First Quarter
Nov 6
Full
Nov 14
Last Quarter

Today's Extremes

Country Highs Country Lows

Community

WunderPhotos

Upload Photos

1,764,268 photos uploaded!

WunderBlogs® & News

Nearby

Snow Depth

Not available.

Earthquake Activity

City Distance Mag. Time & Date
No recent earthquake activity has been reported nearby.
Minimum magnitude displayed is 2.5.

Coastal Water Temperatures

Place Temperature
No Stations Reporting

Nearby Weather Stations